sensor_id;sensor_type;location;lat;lon;timestamp;P1;durP1;ratioP1;P2;durP2;ratioP2
68910;SDS011;55953;51.650;-0.522;2023-04-24T00:00:48;29.40;;;14.80;;
68910;SDS011;55953;51.650;-0.522;2023-04-24T00:03:24;27.90;;;15.60;;
68910;SDS011;55953;51.650;-0.522;2023-04-24T00:05:52;29.20;;;15.70;;
68910;SDS011;55953;51.650;-0.522;2023-04-24T00:08:20;23.60;;;14.00;;
68910;SDS011;55953;51.650;-0.522;2023-04-24T00:10:50;25.60;;;15.40;;
68910;SDS011;55953;51.650;-0.522;2023-04-24T00:13:19;27.70;;;16.20;;
68910;SDS011;55953;51.650;-0.522;2023-04-24T00:15:47;26.30;;;14.60;;
68910;SDS011;55953;51.650;-0.522;2023-04-24T00:18:15;26.30;;;14.20;;
68910;SDS011;55953;51.650;-0.522;2023-04-24T00:20:43;27.70;;;14.90;;
68910;SDS011;55953;51.650;-0.522;2023-04-24T00:23:11;28.10;;;15.50;;
68910;SDS011;55953;51.650;-0.522;2023-04-24T00:25:40;27.80;;;14.80;;
68910;SDS011;55953;51.650;-0.522;2023-04-24T00:28:07;24.30;;;13.60;;
68910;SDS011;55953;51.650;-0.522;2023-04-24T00:30:35;25.20;;;13.80;;
68910;SDS011;55953;51.650;-0.522;2023-04-24T00:33:03;21.50;;;12.90;;
68910;SDS011;55953;51.650;-0.522;2023-04-24T00:35:31;25.20;;;14.10;;
68910;SDS011;55953;51.650;-0.522;2023-04-24T00:37:59;26.10;;;14.50;;
68910;SDS011;55953;51.650;-0.522;2023-04-24T00:40:28;25.80;;;13.40;;
68910;SDS011;55953;51.650;-0.522;2023-04-24T00:42:56;27.80;;;14.40;;
68910;SDS011;55953;51.650;-0.522;2023-04-24T00:45:24;25.80;;;14.10;;
68910;SDS011;55953;51.650;-0.522;2023-04-24T00:47:52;21.70;;;12.20;;
68910;SDS011;55953;51.650;-0.522;2023-04-24T00:50:21;24.50;;;14.30;;
68910;SDS011;55953;51.650;-0.522;2023-04-24T00:52:50;26.70;;;14.10;;
68910;SDS011;55953;51.650;-0.522;2023-04-24T00:55:19;22.90;;;14.00;;
68910;SDS011;55953;51.650;-0.522;2023-04-24T00:57:48;23.30;;;13.70;;
68910;SDS011;55953;51.650;-0.522;2023-04-24T01:00:16;27.80;;;14.30;;
68910;SDS011;55953;51.650;-0.522;2023-04-24T01:02:45;25.00;;;13.50;;
68910;SDS011;55953;51.650;-0.522;2023-04-24T01:05:15;24.70;;;13.70;;
68910;SDS011;55953;51.650;-0.522;2023-04-24T01:07:45;31.30;;;15.20;;
68910;SDS011;55953;51.650;-0.522;2023-04-24T01:10:15;25.20;;;13.00;;
68910;SDS011;55953;51.650;-0.522;2023-04-24T01:12:46;25.80;;;14.50;;
68910;SDS011;55953;51.650;-0.522;2023-04-24T01:15:14;24.30;;;14.00;;
68910;SDS011;55953;51.650;-0.522;2023-04-24T01:17:42;22.50;;;13.40;;
68910;SDS011;55953;51.650;-0.522;2023-04-24T01:20:10;23.40;;;14.10;;
68910;SDS011;55953;51.650;-0.522;2023-04-24T01:22:38;24.80;;;13.80;;
68910;SDS011;55953;51.650;-0.522;2023-04-24T01:25:06;25.40;;;13.60;;
68910;SDS011;55953;51.650;-0.522;2023-04-24T01:27:34;29.30;;;15.40;;
68910;SDS011;55953;51.650;-0.522;2023-04-24T01:30:02;25.40;;;14.00;;
68910;SDS011;55953;51.650;-0.522;2023-04-24T01:32:30;27.90;;;14.70;;
68910;SDS011;55953;51.650;-0.522;2023-04-24T01:34:59;21.70;;;12.10;;
68910;SDS011;55953;51.650;-0.522;2023-04-24T01:37:27;26.00;;;14.20;;
68910;SDS011;55953;51.650;-0.522;2023-04-24T01:39:56;23.60;;;13.60;;
68910;SDS011;55953;51.650;-0.522;2023-04-24T01:42:26;24.90;;;12.50;;
68910;SDS011;55953;51.650;-0.522;2023-04-24T01:44:54;27.80;;;13.50;;
68910;SDS011;55953;51.650;-0.522;2023-04-24T01:47:23;25.90;;;13.50;;
68910;SDS011;55953;51.650;-0.522;2023-04-24T01:49:51;24.50;;;13.20;;
68910;SDS011;55953;51.650;-0.522;2023-04-24T01:52:19;23.10;;;13.40;;
68910;SDS011;55953;51.650;-0.522;2023-04-24T01:54:47;23.20;;;13.00;;
68910;SDS011;55953;51.650;-0.522;2023-04-24T01:57:17;23.20;;;12.80;;
68910;SDS011;55953;51.650;-0.522;2023-04-24T01:59:44;24.50;;;14.00;;
68910;SDS011;55953;51.650;-0.522;2023-04-24T02:02:12;24.80;;;14.00;;
68910;SDS011;55953;51.650;-0.522;2023-04-24T02:04:40;25.30;;;13.10;;
68910;SDS011;55953;51.650;-0.522;2023-04-24T02:07:08;25.60;;;13.60;;
68910;SDS011;55953;51.650;-0.522;2023-04-24T02:09:36;23.20;;;14.10;;
68910;SDS011;55953;51.650;-0.522;2023-04-24T02:12:05;24.30;;;13.40;;
68910;SDS011;55953;51.650;-0.522;2023-04-24T02:14:33;24.20;;;13.90;;
68910;SDS011;55953;51.650;-0.522;2023-04-24T02:17:01;26.50;;;15.00;;
68910;SDS011;55953;51.650;-0.522;2023-04-24T02:19:28;26.10;;;14.60;;
68910;SDS011;55953;51.650;-0.522;2023-04-24T02:21:56;25.50;;;13.50;;
68910;SDS011;55953;51.650;-0.522;2023-04-24T02:24:25;29.50;;;15.20;;
68910;SDS011;55953;51.650;-0.522;2023-04-24T02:26:53;25.80;;;14.20;;
68910;SDS011;55953;51.650;-0.522;2023-04-24T02:29:20;27.00;;;13.60;;
68910;SDS011;55953;51.650;-0.522;2023-04-24T02:31:49;26.90;;;14.30;;
68910;SDS011;55953;51.650;-0.522;2023-04-24T02:34:17;27.40;;;14.80;;
68910;SDS011;55953;51.650;-0.522;2023-04-24T02:36:45;26.20;;;14.00;;
68910;SDS011;55953;51.650;-0.522;2023-04-24T02:39:15;26.70;;;15.10;;
68910;SDS011;55953;51.650;-0.522;2023-04-24T02:41:46;23.80;;;13.00;;
68910;SDS011;55953;51.650;-0.522;2023-04-24T02:44:15;26.10;;;14.30;;
68910;SDS011;55953;51.650;-0.522;2023-04-24T02:46:44;26.80;;;14.60;;
68910;SDS011;55953;51.650;-0.522;2023-04-24T02:49:12;26.10;;;14.20;;
68910;SDS011;55953;51.650;-0.522;2023-04-24T02:51:40;27.10;;;14.60;;
68910;SDS011;55953;51.650;-0.522;2023-04-24T02:54:09;24.20;;;13.20;;
68910;SDS011;55953;51.650;-0.522;2023-04-24T02:56:37;22.60;;;13.40;;
68910;SDS011;55953;51.650;-0.522;2023-04-24T02:59:05;24.60;;;13.80;;
68910;SDS011;55953;51.650;-0.522;2023-04-24T03:01:33;22.60;;;12.70;;
68910;SDS011;55953;51.650;-0.522;2023-04-24T03:04:02;26.30;;;13.80;;
68910;SDS011;55953;51.650;-0.522;2023-04-24T03:06:34;24.80;;;13.10;;
68910;SDS011;55953;51.650;-0.522;2023-04-24T03:09:03;26.40;;;13.30;;
68910;SDS011;55953;51.650;-0.522;2023-04-24T03:11:32;24.40;;;13.10;;
68910;SDS011;55953;51.650;-0.522;2023-04-24T03:14:00;25.10;;;13.90;;
68910;SDS011;55953;51.650;-0.522;2023-04-24T03:16:28;23.60;;;12.70;;
68910;SDS011;55953;51.650;-0.522;2023-04-24T03:18:56;20.80;;;12.50;;
68910;SDS011;55953;51.650;-0.522;2023-04-24T03:21:25;24.80;;;12.80;;
68910;SDS011;55953;51.650;-0.522;2023-04-24T03:23:54;22.60;;;12.40;;
68910;SDS011;55953;51.650;-0.522;2023-04-24T03:26:22;22.60;;;12.60;;
68910;SDS011;55953;51.650;-0.522;2023-04-24T03:29:00;25.60;;;13.20;;
68910;SDS011;55953;51.650;-0.522;2023-04-24T03:31:28;22.50;;;12.80;;
68910;SDS011;55953;51.650;-0.522;2023-04-24T03:33:57;21.20;;;12.00;;
68910;SDS011;55953;51.650;-0.522;2023-04-24T03:36:25;23.20;;;12.30;;
68910;SDS011;55953;51.650;-0.522;2023-04-24T03:38:54;23.60;;;13.40;;
68910;SDS011;55953;51.650;-0.522;2023-04-24T03:41:26;22.70;;;12.90;;
68910;SDS011;55953;51.650;-0.522;2023-04-24T03:43:59;23.80;;;12.90;;
68910;SDS011;55953;51.650;-0.522;2023-04-24T03:46:27;24.40;;;14.00;;
68910;SDS011;55953;51.650;-0.522;2023-04-24T03:48:57;25.10;;;12.50;;
68910;SDS011;55953;51.650;-0.522;2023-04-24T03:51:29;25.40;;;13.30;;
68910;SDS011;55953;51.650;-0.522;2023-04-24T03:54:04;21.20;;;12.80;;
68910;SDS011;55953;51.650;-0.522;2023-04-24T03:56:37;19.60;;;12.40;;
68910;SDS011;55953;51.650;-0.522;2023-04-24T03:59:06;22.50;;;12.30;;
68910;SDS011;55953;51.650;-0.522;2023-04-24T04:01:35;24.10;;;13.30;;
68910;SDS011;55953;51.650;-0.522;2023-04-24T04:04:15;24.20;;;13.30;;
68910;SDS011;55953;51.650;-0.522;2023-04-24T04:06:44;24.40;;;13.40;;
68910;SDS011;55953;51.650;-0.522;2023-04-24T04:09:14;24.30;;;13.20;;
68910;SDS011;55953;51.650;-0.522;2023-04-24T04:11:42;23.70;;;12.40;;
68910;SDS011;55953;51.650;-0.522;2023-04-24T04:14:12;21.70;;;12.10;;
68910;SDS011;55953;51.650;-0.522;2023-04-24T04:16:41;22.80;;;12.30;;
68910;SDS011;55953;51.650;-0.522;2023-04-24T04:19:10;23.90;;;13.00;;
68910;SDS011;55953;51.650;-0.522;2023-04-24T04:21:38;24.00;;;12.60;;
68910;SDS011;55953;51.650;-0.522;2023-04-24T04:24:14;21.90;;;12.60;;
68910;SDS011;55953;51.650;-0.522;2023-04-24T04:26:44;23.50;;;13.10;;
68910;SDS011;55953;51.650;-0.522;2023-04-24T04:29:23;23.40;;;12.70;;
68910;SDS011;55953;51.650;-0.522;2023-04-24T04:31:51;22.20;;;12.90;;
68910;SDS011;55953;51.650;-0.522;2023-04-24T04:34:21;22.30;;;12.00;;
68910;SDS011;55953;51.650;-0.522;2023-04-24T04:36:50;24.60;;;12.80;;
68910;SDS011;55953;51.650;-0.522;2023-04-24T04:39:31;22.00;;;11.80;;
68910;SDS011;55953;51.650;-0.522;2023-04-24T04:42:05;16.80;;;10.60;;
68910;SDS011;55953;51.650;-0.522;2023-04-24T04:44:40;22.10;;;10.70;;
68910;SDS011;55953;51.650;-0.522;2023-04-24T04:47:10;19.90;;;11.10;;
68910;SDS011;55953;51.650;-0.522;2023-04-24T04:49:38;19.40;;;10.30;;
68910;SDS011;55953;51.650;-0.522;2023-04-24T04:52:10;15.30;;;8.60;;
68910;SDS011;55953;51.650;-0.522;2023-04-24T04:54:38;17.90;;;8.60;;
68910;SDS011;55953;51.650;-0.522;2023-04-24T04:57:06;19.10;;;8.60;;
68910;SDS011;55953;51.650;-0.522;2023-04-24T04:59:34;16.00;;;8.50;;
68910;SDS011;55953;51.650;-0.522;2023-04-24T05:02:05;16.10;;;7.10;;
68910;SDS011;55953;51.650;-0.522;2023-04-24T05:04:33;18.60;;;7.70;;
68910;SDS011;55953;51.650;-0.522;2023-04-24T05:07:02;19.30;;;8.40;;
68910;SDS011;55953;51.650;-0.522;2023-04-24T05:09:32;17.10;;;6.70;;
68910;SDS011;55953;51.650;-0.522;2023-04-24T05:12:04;12.90;;;4.90;;
68910;SDS011;55953;51.650;-0.522;2023-04-24T05:14:36;11.70;;;4.90;;
68910;SDS011;55953;51.650;-0.522;2023-04-24T05:17:04;13.40;;;4.50;;
68910;SDS011;55953;51.650;-0.522;2023-04-24T05:19:32;8.40;;;3.80;;
68910;SDS011;55953;51.650;-0.522;2023-04-24T05:22:03;7.40;;;3.60;;
68910;SDS011;55953;51.650;-0.522;2023-04-24T05:24:36;9.20;;;3.50;;
68910;SDS011;55953;51.650;-0.522;2023-04-24T05:27:13;9.40;;;3.10;;
68910;SDS011;55953;51.650;-0.522;2023-04-24T05:29:41;7.90;;;3.00;;
68910;SDS011;55953;51.650;-0.522;2023-04-24T05:32:10;10.30;;;3.70;;
68910;SDS011;55953;51.650;-0.522;2023-04-24T05:34:38;6.20;;;3.10;;
68910;SDS011;55953;51.650;-0.522;2023-04-24T05:37:07;12.20;;;3.50;;
68910;SDS011;55953;51.650;-0.522;2023-04-24T05:39:37;9.70;;;3.70;;
68910;SDS011;55953;51.650;-0.522;2023-04-24T05:42:05;10.40;;;3.30;;
68910;SDS011;55953;51.650;-0.522;2023-04-24T05:44:33;6.60;;;3.00;;
68910;SDS011;55953;51.650;-0.522;2023-04-24T05:47:01;8.60;;;2.90;;
68910;SDS011;55953;51.650;-0.522;2023-04-24T05:49:30;7.30;;;3.00;;
68910;SDS011;55953;51.650;-0.522;2023-04-24T05:51:58;9.50;;;2.60;;
68910;SDS011;55953;51.650;-0.522;2023-04-24T05:54:26;8.40;;;2.60;;
68910;SDS011;55953;51.650;-0.522;2023-04-24T05:56:56;5.30;;;2.50;;
68910;SDS011;55953;51.650;-0.522;2023-04-24T05:59:37;8.80;;;3.20;;
68910;SDS011;55953;51.650;-0.522;2023-04-24T06:02:10;9.20;;;3.10;;
68910;SDS011;55953;51.650;-0.522;2023-04-24T06:04:38;7.70;;;2.40;;
68910;SDS011;55953;51.650;-0.522;2023-04-24T06:07:07;9.20;;;2.50;;
68910;SDS011;55953;51.650;-0.522;2023-04-24T06:09:35;8.60;;;2.70;;
68910;SDS011;55953;51.650;-0.522;2023-04-24T06:12:04;10.10;;;2.60;;
68910;SDS011;55953;51.650;-0.522;2023-04-24T06:14:44;9.10;;;2.50;;
68910;SDS011;55953;51.650;-0.522;2023-04-24T06:17:19;5.90;;;2.30;;
68910;SDS011;55953;51.650;-0.522;2023-04-24T06:19:47;10.00;;;2.60;;
68910;SDS011;55953;51.650;-0.522;2023-04-24T06:22:15;7.80;;;2.50;;
68910;SDS011;55953;51.650;-0.522;2023-04-24T06:24:43;6.50;;;2.30;;
68910;SDS011;55953;51.650;-0.522;2023-04-24T06:27:12;8.60;;;2.30;;
68910;SDS011;55953;51.650;-0.522;2023-04-24T06:29:42;7.00;;;2.20;;
68910;SDS011;55953;51.650;-0.522;2023-04-24T06:32:10;6.30;;;2.10;;
68910;SDS011;55953;51.650;-0.522;2023-04-24T06:34:38;6.50;;;2.20;;
68910;SDS011;55953;51.650;-0.522;2023-04-24T06:37:06;6.60;;;1.90;;
68910;SDS011;55953;51.650;-0.522;2023-04-24T06:39:34;7.00;;;1.90;;
68910;SDS011;55953;51.650;-0.522;2023-04-24T06:42:02;5.30;;;2.10;;
68910;SDS011;55953;51.650;-0.522;2023-04-24T06:44:34;5.60;;;2.20;;
68910;SDS011;55953;51.650;-0.522;2023-04-24T06:47:09;6.20;;;2.20;;
68910;SDS011;55953;51.650;-0.522;2023-04-24T06:49:38;7.40;;;2.00;;
68910;SDS011;55953;51.650;-0.522;2023-04-24T06:52:06;6.10;;;1.90;;
68910;SDS011;55953;51.650;-0.522;2023-04-24T06:54:34;11.60;;;2.30;;
68910;SDS011;55953;51.650;-0.522;2023-04-24T06:57:02;8.00;;;2.20;;
68910;SDS011;55953;51.650;-0.522;2023-04-24T06:59:30;4.80;;;1.90;;
68910;SDS011;55953;51.650;-0.522;2023-04-24T07:01:58;7.80;;;2.20;;
68910;SDS011;55953;51.650;-0.522;2023-04-24T07:04:26;6.70;;;1.90;;
68910;SDS011;55953;51.650;-0.522;2023-04-24T07:06:56;6.50;;;2.40;;
68910;SDS011;55953;51.650;-0.522;2023-04-24T07:09:25;6.10;;;1.80;;
68910;SDS011;55953;51.650;-0.522;2023-04-24T07:11:54;6.20;;;2.00;;
68910;SDS011;55953;51.650;-0.522;2023-04-24T07:14:23;7.50;;;2.10;;
68910;SDS011;55953;51.650;-0.522;2023-04-24T07:16:51;6.60;;;1.80;;
68910;SDS011;55953;51.650;-0.522;2023-04-24T07:19:19;6.80;;;2.30;;
68910;SDS011;55953;51.650;-0.522;2023-04-24T07:21:47;7.70;;;1.70;;
68910;SDS011;55953;51.650;-0.522;2023-04-24T07:24:15;4.40;;;1.50;;
68910;SDS011;55953;51.650;-0.522;2023-04-24T07:26:43;5.90;;;1.90;;
68910;SDS011;55953;51.650;-0.522;2023-04-24T07:29:11;4.30;;;1.50;;
68910;SDS011;55953;51.650;-0.522;2023-04-24T07:31:38;6.60;;;1.70;;
68910;SDS011;55953;51.650;-0.522;2023-04-24T07:34:08;6.30;;;1.80;;
68910;SDS011;55953;51.650;-0.522;2023-04-24T07:36:36;5.70;;;1.60;;
68910;SDS011;55953;51.650;-0.522;2023-04-24T07:39:05;4.60;;;1.60;;
68910;SDS011;55953;51.650;-0.522;2023-04-24T07:41:33;7.20;;;1.60;;
68910;SDS011;55953;51.650;-0.522;2023-04-24T07:44:01;5.10;;;1.80;;
68910;SDS011;55953;51.650;-0.522;2023-04-24T07:46:30;5.30;;;1.50;;
68910;SDS011;55953;51.650;-0.522;2023-04-24T07:48:58;5.40;;;1.80;;
68910;SDS011;55953;51.650;-0.522;2023-04-24T07:51:39;6.20;;;1.70;;
68910;SDS011;55953;51.650;-0.522;2023-04-24T07:54:08;5.30;;;1.50;;
68910;SDS011;55953;51.650;-0.522;2023-04-24T07:56:37;6.30;;;1.60;;
68910;SDS011;55953;51.650;-0.522;2023-04-24T07:59:06;4.20;;;1.50;;
68910;SDS011;55953;51.650;-0.522;2023-04-24T08:01:34;7.10;;;1.70;;
68910;SDS011;55953;51.650;-0.522;2023-04-24T08:04:02;5.20;;;1.60;;
68910;SDS011;55953;51.650;-0.522;2023-04-24T08:06:30;5.50;;;1.60;;
68910;SDS011;55953;51.650;-0.522;2023-04-24T08:09:00;5.10;;;1.60;;
68910;SDS011;55953;51.650;-0.522;2023-04-24T08:11:28;5.70;;;1.50;;
68910;SDS011;55953;51.650;-0.522;2023-04-24T08:13:56;4.80;;;1.70;;
68910;SDS011;55953;51.650;-0.522;2023-04-24T08:16:24;7.20;;;1.60;;
68910;SDS011;55953;51.650;-0.522;2023-04-24T08:18:53;2.80;;;1.30;;
68910;SDS011;55953;51.650;-0.522;2023-04-24T08:21:20;3.80;;;1.50;;
68910;SDS011;55953;51.650;-0.522;2023-04-24T08:23:49;3.60;;;1.20;;
68910;SDS011;55953;51.650;-0.522;2023-04-24T08:26:17;3.50;;;1.40;;
68910;SDS011;55953;51.650;-0.522;2023-04-24T08:28:45;4.20;;;1.50;;
68910;SDS011;55953;51.650;-0.522;2023-04-24T08:31:13;4.90;;;1.60;;
68910;SDS011;55953;51.650;-0.522;2023-04-24T08:33:41;4.90;;;1.60;;
68910;SDS011;55953;51.650;-0.522;2023-04-24T08:36:09;4.80;;;1.50;;
68910;SDS011;55953;51.650;-0.522;2023-04-24T08:38:37;5.70;;;2.00;;
68910;SDS011;55953;51.650;-0.522;2023-04-24T08:41:05;5.60;;;1.70;;
68910;SDS011;55953;51.650;-0.522;2023-04-24T08:43:36;6.00;;;1.70;;
68910;SDS011;55953;51.650;-0.522;2023-04-24T08:46:06;6.70;;;1.80;;
68910;SDS011;55953;51.650;-0.522;2023-04-24T08:48:39;4.90;;;1.50;;
68910;SDS011;55953;51.650;-0.522;2023-04-24T08:51:08;5.40;;;1.30;;
68910;SDS011;55953;51.650;-0.522;2023-04-24T08:53:36;4.80;;;1.60;;
68910;SDS011;55953;51.650;-0.522;2023-04-24T08:56:05;6.50;;;1.60;;
68910;SDS011;55953;51.650;-0.522;2023-04-24T08:58:35;5.10;;;1.50;;
68910;SDS011;55953;51.650;-0.522;2023-04-24T09:01:04;4.20;;;1.50;;
68910;SDS011;55953;51.650;-0.522;2023-04-24T09:03:33;3.10;;;1.20;;
68910;SDS011;55953;51.650;-0.522;2023-04-24T09:06:02;4.30;;;1.40;;
68910;SDS011;55953;51.650;-0.522;2023-04-24T09:08:30;3.40;;;1.30;;
68910;SDS011;55953;51.650;-0.522;2023-04-24T09:10:58;7.10;;;1.60;;
68910;SDS011;55953;51.650;-0.522;2023-04-24T09:13:30;6.30;;;1.70;;
68910;SDS011;55953;51.650;-0.522;2023-04-24T09:15:58;4.40;;;1.50;;
68910;SDS011;55953;51.650;-0.522;2023-04-24T09:18:28;4.00;;;1.50;;
68910;SDS011;55953;51.650;-0.522;2023-04-24T09:21:01;4.80;;;1.70;;
68910;SDS011;55953;51.650;-0.522;2023-04-24T09:23:31;6.80;;;1.80;;
68910;SDS011;55953;51.650;-0.522;2023-04-24T09:26:01;7.00;;;1.70;;
68910;SDS011;55953;51.650;-0.522;2023-04-24T09:28:39;8.70;;;1.90;;
68910;SDS011;55953;51.650;-0.522;2023-04-24T09:31:13;4.60;;;1.40;;
68910;SDS011;55953;51.650;-0.522;2023-04-24T09:34:01;4.00;;;1.70;;
68910;SDS011;55953;51.650;-0.522;2023-04-24T09:36:36;5.60;;;1.60;;
68910;SDS011;55953;51.650;-0.522;2023-04-24T09:39:12;4.20;;;1.60;;
68910;SDS011;55953;51.650;-0.522;2023-04-24T09:41:47;4.20;;;1.40;;
68910;SDS011;55953;51.650;-0.522;2023-04-24T09:46:54;4.90;;;1.60;;
68910;SDS011;55953;51.650;-0.522;2023-04-24T09:49:31;2.90;;;1.40;;
68910;SDS011;55953;51.650;-0.522;2023-04-24T09:52:08;3.20;;;1.40;;
68910;SDS011;55953;51.650;-0.522;2023-04-24T09:54:38;3.70;;;1.50;;
68910;SDS011;55953;51.650;-0.522;2023-04-24T09:57:07;4.40;;;1.30;;
68910;SDS011;55953;51.650;-0.522;2023-04-24T09:59:42;5.50;;;1.80;;
68910;SDS011;55953;51.650;-0.522;2023-04-24T10:02:19;4.10;;;1.80;;
68910;SDS011;55953;51.650;-0.522;2023-04-24T10:04:56;7.40;;;2.20;;
68910;SDS011;55953;51.650;-0.522;2023-04-24T10:07:26;3.70;;;1.30;;
68910;SDS011;55953;51.650;-0.522;2023-04-24T10:09:55;5.20;;;1.60;;
68910;SDS011;55953;51.650;-0.522;2023-04-24T10:12:23;4.90;;;1.60;;
68910;SDS011;55953;51.650;-0.522;2023-04-24T10:14:53;3.60;;;1.60;;
68910;SDS011;55953;51.650;-0.522;2023-04-24T10:17:22;4.30;;;1.80;;
68910;SDS011;55953;51.650;-0.522;2023-04-24T10:19:52;5.80;;;1.90;;
68910;SDS011;55953;51.650;-0.522;2023-04-24T10:22:21;4.70;;;1.70;;
68910;SDS011;55953;51.650;-0.522;2023-04-24T10:24:52;5.30;;;1.90;;
68910;SDS011;55953;51.650;-0.522;2023-04-24T10:27:20;5.40;;;1.80;;
68910;SDS011;55953;51.650;-0.522;2023-04-24T10:29:51;5.20;;;1.70;;
68910;SDS011;55953;51.650;-0.522;2023-04-24T10:32:21;6.70;;;1.40;;
68910;SDS011;55953;51.650;-0.522;2023-04-24T10:34:49;5.00;;;1.40;;
68910;SDS011;55953;51.650;-0.522;2023-04-24T10:37:17;4.20;;;1.40;;
68910;SDS011;55953;51.650;-0.522;2023-04-24T10:39:48;2.70;;;1.30;;
68910;SDS011;55953;51.650;-0.522;2023-04-24T10:42:18;3.50;;;1.40;;
68910;SDS011;55953;51.650;-0.522;2023-04-24T10:44:49;3.80;;;1.40;;
68910;SDS011;55953;51.650;-0.522;2023-04-24T10:47:17;2.90;;;1.10;;
68910;SDS011;55953;51.650;-0.522;2023-04-24T10:49:45;2.20;;;1.00;;
68910;SDS011;55953;51.650;-0.522;2023-04-24T10:52:13;4.50;;;1.10;;
68910;SDS011;55953;51.650;-0.522;2023-04-24T10:54:45;3.50;;;1.20;;
68910;SDS011;55953;51.650;-0.522;2023-04-24T10:59:49;6.00;;;1.50;;
68910;SDS011;55953;51.650;-0.522;2023-04-24T11:02:35;3.20;;;1.40;;
68910;SDS011;55953;51.650;-0.522;2023-04-24T11:05:06;3.10;;;1.00;;
68910;SDS011;55953;51.650;-0.522;2023-04-24T11:11:04;4.90;;;1.10;;
68910;SDS011;55953;51.650;-0.522;2023-04-24T11:21:39;5.40;;;1.40;;
68910;SDS011;55953;51.650;-0.522;2023-04-24T11:27:16;3.20;;;1.40;;
68910;SDS011;55953;51.650;-0.522;2023-04-24T11:32:42;4.10;;;1.60;;
68910;SDS011;55953;51.650;-0.522;2023-04-24T11:35:22;5.60;;;1.50;;
68910;SDS011;55953;51.650;-0.522;2023-04-24T11:37:55;3.80;;;1.70;;
68910;SDS011;55953;51.650;-0.522;2023-04-24T11:40:26;4.50;;;1.80;;
68910;SDS011;55953;51.650;-0.522;2023-04-24T11:42:54;3.90;;;1.80;;
68910;SDS011;55953;51.650;-0.522;2023-04-24T11:45:30;5.20;;;1.70;;
68910;SDS011;55953;51.650;-0.522;2023-04-24T11:47:58;4.00;;;1.60;;
68910;SDS011;55953;51.650;-0.522;2023-04-24T11:50:26;5.90;;;1.60;;
68910;SDS011;55953;51.650;-0.522;2023-04-24T11:52:56;3.30;;;1.30;;
68910;SDS011;55953;51.650;-0.522;2023-04-24T11:55:26;3.40;;;1.50;;
68910;SDS011;55953;51.650;-0.522;2023-04-24T12:00:28;4.90;;;2.00;;
68910;SDS011;55953;51.650;-0.522;2023-04-24T12:03:10;5.00;;;1.90;;
68910;SDS011;55953;51.650;-0.522;2023-04-24T12:05:40;4.30;;;2.10;;
68910;SDS011;55953;51.650;-0.522;2023-04-24T12:08:08;3.60;;;2.00;;
68910;SDS011;55953;51.650;-0.522;2023-04-24T12:10:36;5.20;;;1.90;;
68910;SDS011;55953;51.650;-0.522;2023-04-24T12:13:04;4.20;;;1.90;;
68910;SDS011;55953;51.650;-0.522;2023-04-24T12:15:32;4.10;;;2.10;;
68910;SDS011;55953;51.650;-0.522;2023-04-24T12:18:01;6.00;;;2.20;;
68910;SDS011;55953;51.650;-0.522;2023-04-24T12:20:32;4.00;;;2.50;;
68910;SDS011;55953;51.650;-0.522;2023-04-24T12:23:01;7.30;;;2.30;;
68910;SDS011;55953;51.650;-0.522;2023-04-24T12:25:31;4.80;;;2.10;;
68910;SDS011;55953;51.650;-0.522;2023-04-24T12:30:33;4.50;;;2.60;;
68910;SDS011;55953;51.650;-0.522;2023-04-24T12:33:02;3.40;;;2.00;;
68910;SDS011;55953;51.650;-0.522;2023-04-24T12:35:32;4.80;;;2.40;;
68910;SDS011;55953;51.650;-0.522;2023-04-24T12:38:15;6.20;;;2.70;;
68910;SDS011;55953;51.650;-0.522;2023-04-24T12:40:45;6.10;;;2.50;;
68910;SDS011;55953;51.650;-0.522;2023-04-24T12:43:19;6.20;;;2.30;;
68910;SDS011;55953;51.650;-0.522;2023-04-24T12:45:48;4.80;;;2.50;;
68910;SDS011;55953;51.650;-0.522;2023-04-24T12:48:16;4.90;;;2.50;;
68910;SDS011;55953;51.650;-0.522;2023-04-24T12:50:44;5.40;;;2.80;;
68910;SDS011;55953;51.650;-0.522;2023-04-24T12:53:14;5.00;;;2.50;;
68910;SDS011;55953;51.650;-0.522;2023-04-24T12:55:43;5.50;;;2.50;;
68910;SDS011;55953;51.650;-0.522;2023-04-24T12:58:12;5.40;;;2.80;;
68910;SDS011;55953;51.650;-0.522;2023-04-24T13:00:40;4.40;;;2.60;;
68910;SDS011;55953;51.650;-0.522;2023-04-24T13:03:11;5.70;;;2.70;;
68910;SDS011;55953;51.650;-0.522;2023-04-24T13:05:40;7.00;;;3.20;;
68910;SDS011;55953;51.650;-0.522;2023-04-24T13:08:09;6.30;;;2.60;;
68910;SDS011;55953;51.650;-0.522;2023-04-24T13:10:37;4.90;;;2.80;;
68910;SDS011;55953;51.650;-0.522;2023-04-24T13:13:05;6.50;;;2.90;;
68910;SDS011;55953;51.650;-0.522;2023-04-24T13:15:33;5.50;;;2.70;;
68910;SDS011;55953;51.650;-0.522;2023-04-24T13:18:02;7.00;;;2.90;;
68910;SDS011;55953;51.650;-0.522;2023-04-24T13:20:30;4.50;;;2.60;;
68910;SDS011;55953;51.650;-0.522;2023-04-24T13:22:58;6.40;;;2.50;;
68910;SDS011;55953;51.650;-0.522;2023-04-24T13:25:26;6.40;;;3.00;;
68910;SDS011;55953;51.650;-0.522;2023-04-24T13:27:54;6.30;;;2.90;;
68910;SDS011;55953;51.650;-0.522;2023-04-24T13:30:22;5.50;;;2.80;;
68910;SDS011;55953;51.650;-0.522;2023-04-24T13:32:50;4.60;;;2.50;;
68910;SDS011;55953;51.650;-0.522;2023-04-24T13:35:18;4.40;;;2.30;;
68910;SDS011;55953;51.650;-0.522;2023-04-24T13:37:46;5.40;;;2.60;;
68910;SDS011;55953;51.650;-0.522;2023-04-24T13:40:14;4.80;;;2.70;;
68910;SDS011;55953;51.650;-0.522;2023-04-24T13:42:42;6.80;;;2.70;;
68910;SDS011;55953;51.650;-0.522;2023-04-24T13:45:10;5.40;;;2.90;;
68910;SDS011;55953;51.650;-0.522;2023-04-24T13:47:52;4.90;;;2.60;;
68910;SDS011;55953;51.650;-0.522;2023-04-24T13:50:21;4.70;;;2.30;;
68910;SDS011;55953;51.650;-0.522;2023-04-24T13:52:49;6.40;;;2.00;;
68910;SDS011;55953;51.650;-0.522;2023-04-24T13:55:17;3.90;;;2.20;;
68910;SDS011;55953;51.650;-0.522;2023-04-24T13:57:45;3.90;;;2.00;;
68910;SDS011;55953;51.650;-0.522;2023-04-24T14:00:13;4.50;;;2.20;;
68910;SDS011;55953;51.650;-0.522;2023-04-24T14:02:41;4.20;;;2.10;;
68910;SDS011;55953;51.650;-0.522;2023-04-24T14:05:10;5.80;;;2.30;;
68910;SDS011;55953;51.650;-0.522;2023-04-24T14:07:38;6.10;;;2.70;;
68910;SDS011;55953;51.650;-0.522;2023-04-24T14:10:07;5.60;;;2.50;;
68910;SDS011;55953;51.650;-0.522;2023-04-24T14:12:35;6.20;;;2.40;;
68910;SDS011;55953;51.650;-0.522;2023-04-24T14:15:04;7.50;;;3.20;;
68910;SDS011;55953;51.650;-0.522;2023-04-24T14:17:32;5.40;;;2.30;;
68910;SDS011;55953;51.650;-0.522;2023-04-24T14:20:00;4.90;;;2.70;;
68910;SDS011;55953;51.650;-0.522;2023-04-24T14:22:29;4.70;;;2.70;;
68910;SDS011;55953;51.650;-0.522;2023-04-24T14:24:57;5.70;;;2.60;;
68910;SDS011;55953;51.650;-0.522;2023-04-24T14:27:25;5.50;;;2.30;;
68910;SDS011;55953;51.650;-0.522;2023-04-24T14:29:53;4.80;;;2.80;;
68910;SDS011;55953;51.650;-0.522;2023-04-24T14:32:22;5.10;;;2.20;;
68910;SDS011;55953;51.650;-0.522;2023-04-24T14:34:50;4.70;;;2.10;;
68910;SDS011;55953;51.650;-0.522;2023-04-24T14:37:17;6.40;;;3.60;;
68910;SDS011;55953;51.650;-0.522;2023-04-24T14:39:45;7.80;;;3.90;;
68910;SDS011;55953;51.650;-0.522;2023-04-24T14:42:33;10.60;;;5.30;;
68910;SDS011;55953;51.650;-0.522;2023-04-24T14:45:01;8.10;;;5.00;;
68910;SDS011;55953;51.650;-0.522;2023-04-24T14:47:30;9.50;;;4.50;;
68910;SDS011;55953;51.650;-0.522;2023-04-24T14:49:58;6.60;;;4.20;;
68910;SDS011;55953;51.650;-0.522;2023-04-24T14:52:26;5.80;;;3.30;;
68910;SDS011;55953;51.650;-0.522;2023-04-24T14:54:54;7.20;;;3.00;;
68910;SDS011;55953;51.650;-0.522;2023-04-24T14:57:22;5.40;;;2.60;;
68910;SDS011;55953;51.650;-0.522;2023-04-24T14:59:50;4.20;;;2.00;;
68910;SDS011;55953;51.650;-0.522;2023-04-24T15:02:18;3.90;;;1.70;;
68910;SDS011;55953;51.650;-0.522;2023-04-24T15:04:48;4.70;;;1.80;;
68910;SDS011;55953;51.650;-0.522;2023-04-24T15:07:17;4.30;;;1.70;;